sensor_id;sensor_type;location;lat;lon;timestamp;P1;durP1;ratioP1;P2;durP2;ratioP2
17052;SDS011;8643;48.824;11.422;2023-08-12T00:00:09;6.85;;;3.72;;
17052;SDS011;8643;48.824;11.422;2023-08-12T00:02:43;6.55;;;3.58;;
17052;SDS011;8643;48.824;11.422;2023-08-12T00:05:13;5.18;;;3.58;;
17052;SDS011;8643;48.824;11.422;2023-08-12T00:07:43;7.18;;;3.65;;
17052;SDS011;8643;48.824;11.422;2023-08-12T00:10:11;4.43;;;3.88;;
17052;SDS011;8643;48.824;11.422;2023-08-12T00:12:40;5.88;;;3.60;;
17052;SDS011;8643;48.824;11.422;2023-08-12T00:15:09;3.67;;;3.30;;
17052;SDS011;8643;48.824;11.422;2023-08-12T00:17:38;6.80;;;3.83;;
17052;SDS011;8643;48.824;11.422;2023-08-12T00:20:09;8.82;;;3.53;;
17052;SDS011;8643;48.824;11.422;2023-08-12T00:22:39;4.80;;;3.83;;
17052;SDS011;8643;48.824;11.422;2023-08-12T00:25:09;5.75;;;3.85;;
17052;SDS011;8643;48.824;11.422;2023-08-12T00:27:38;4.88;;;3.80;;
17052;SDS011;8643;48.824;11.422;2023-08-12T00:30:06;7.38;;;4.07;;
17052;SDS011;8643;48.824;11.422;2023-08-12T00:32:37;5.05;;;4.03;;
17052;SDS011;8643;48.824;11.422;2023-08-12T00:35:07;5.57;;;3.88;;
17052;SDS011;8643;48.824;11.422;2023-08-12T00:37:36;5.55;;;4.10;;
17052;SDS011;8643;48.824;11.422;2023-08-12T00:40:05;4.55;;;3.72;;
17052;SDS011;8643;48.824;11.422;2023-08-12T00:42:36;6.28;;;3.60;;
17052;SDS011;8643;48.824;11.422;2023-08-12T00:45:05;5.35;;;4.03;;
17052;SDS011;8643;48.824;11.422;2023-08-12T00:47:39;4.88;;;3.72;;
17052;SDS011;8643;48.824;11.422;2023-08-12T00:50:09;5.68;;;4.03;;
17052;SDS011;8643;48.824;11.422;2023-08-12T00:52:41;5.50;;;3.42;;
17052;SDS011;8643;48.824;11.422;2023-08-12T00:55:12;5.93;;;3.75;;
17052;SDS011;8643;48.824;11.422;2023-08-12T00:57:42;4.65;;;3.70;;
17052;SDS011;8643;48.824;11.422;2023-08-12T01:00:12;5.40;;;4.10;;
17052;SDS011;8643;48.824;11.422;2023-08-12T01:02:44;5.93;;;3.92;;
17052;SDS011;8643;48.824;11.422;2023-08-12T01:05:16;5.25;;;4.13;;
17052;SDS011;8643;48.824;11.422;2023-08-12T01:07:46;5.65;;;4.20;;
17052;SDS011;8643;48.824;11.422;2023-08-12T01:10:14;5.10;;;3.80;;
17052;SDS011;8643;48.824;11.422;2023-08-12T01:12:47;5.88;;;4.32;;
17052;SDS011;8643;48.824;11.422;2023-08-12T01:15:23;5.43;;;3.88;;
17052;SDS011;8643;48.824;11.422;2023-08-12T01:17:53;5.90;;;4.18;;
17052;SDS011;8643;48.824;11.422;2023-08-12T01:20:24;5.88;;;4.13;;
17052;SDS011;8643;48.824;11.422;2023-08-12T01:22:56;4.30;;;3.90;;
17052;SDS011;8643;48.824;11.422;2023-08-12T01:25:30;6.88;;;4.00;;
17052;SDS011;8643;48.824;11.422;2023-08-12T01:27:59;6.85;;;4.60;;
17052;SDS011;8643;48.824;11.422;2023-08-12T01:30:27;6.93;;;4.20;;
17052;SDS011;8643;48.824;11.422;2023-08-12T01:32:57;4.18;;;3.72;;
17052;SDS011;8643;48.824;11.422;2023-08-12T01:35:35;4.38;;;3.58;;
17052;SDS011;8643;48.824;11.422;2023-08-12T01:38:09;4.93;;;3.95;;
17052;SDS011;8643;48.824;11.422;2023-08-12T01:40:40;5.45;;;4.13;;
17052;SDS011;8643;48.824;11.422;2023-08-12T01:43:10;7.15;;;4.13;;
17052;SDS011;8643;48.824;11.422;2023-08-12T01:45:41;7.75;;;3.97;;
17052;SDS011;8643;48.824;11.422;2023-08-12T01:48:10;8.10;;;4.35;;
17052;SDS011;8643;48.824;11.422;2023-08-12T01:50:38;5.13;;;3.58;;
17052;SDS011;8643;48.824;11.422;2023-08-12T01:53:13;5.03;;;3.90;;
17052;SDS011;8643;48.824;11.422;2023-08-12T01:55:43;4.72;;;3.90;;
17052;SDS011;8643;48.824;11.422;2023-08-12T01:58:12;6.30;;;3.90;;
17052;SDS011;8643;48.824;11.422;2023-08-12T02:00:41;4.63;;;4.10;;
17052;SDS011;8643;48.824;11.422;2023-08-12T02:03:09;5.20;;;3.60;;
17052;SDS011;8643;48.824;11.422;2023-08-12T02:05:38;5.03;;;4.00;;
17052;SDS011;8643;48.824;11.422;2023-08-12T02:08:07;5.00;;;3.90;;
17052;SDS011;8643;48.824;11.422;2023-08-12T02:10:36;6.20;;;4.05;;
17052;SDS011;8643;48.824;11.422;2023-08-12T02:13:06;7.25;;;3.92;;
17052;SDS011;8643;48.824;11.422;2023-08-12T02:15:35;4.95;;;4.20;;
17052;SDS011;8643;48.824;11.422;2023-08-12T02:18:10;5.25;;;4.15;;
17052;SDS011;8643;48.824;11.422;2023-08-12T02:20:39;7.10;;;4.13;;
17052;SDS011;8643;48.824;11.422;2023-08-12T02:23:08;5.13;;;4.40;;
17052;SDS011;8643;48.824;11.422;2023-08-12T02:25:37;5.07;;;3.88;;
17052;SDS011;8643;48.824;11.422;2023-08-12T02:28:07;4.68;;;3.65;;
17052;SDS011;8643;48.824;11.422;2023-08-12T02:30:35;6.63;;;3.50;;
17052;SDS011;8643;48.824;11.422;2023-08-12T02:33:04;5.00;;;3.72;;
17052;SDS011;8643;48.824;11.422;2023-08-12T02:35:32;6.85;;;4.03;;
17052;SDS011;8643;48.824;11.422;2023-08-12T02:38:02;4.75;;;3.53;;
17052;SDS011;8643;48.824;11.422;2023-08-12T02:40:31;5.80;;;3.78;;
17052;SDS011;8643;48.824;11.422;2023-08-12T02:42:59;4.75;;;3.80;;
17052;SDS011;8643;48.824;11.422;2023-08-12T02:45:29;4.82;;;3.97;;
17052;SDS011;8643;48.824;11.422;2023-08-12T02:47:58;4.70;;;3.75;;
17052;SDS011;8643;48.824;11.422;2023-08-12T02:50:26;6.80;;;4.03;;
17052;SDS011;8643;48.824;11.422;2023-08-12T02:52:55;5.80;;;4.38;;
17052;SDS011;8643;48.824;11.422;2023-08-12T02:55:23;6.05;;;3.95;;
17052;SDS011;8643;48.824;11.422;2023-08-12T02:57:51;4.65;;;3.97;;
17052;SDS011;8643;48.824;11.422;2023-08-12T03:00:20;4.72;;;3.80;;
17052;SDS011;8643;48.824;11.422;2023-08-12T03:02:50;4.40;;;4.00;;
17052;SDS011;8643;48.824;11.422;2023-08-12T03:05:19;4.95;;;4.45;;
17052;SDS011;8643;48.824;11.422;2023-08-12T03:07:48;6.20;;;4.45;;
17052;SDS011;8643;48.824;11.422;2023-08-12T03:10:18;4.38;;;3.75;;
17052;SDS011;8643;48.824;11.422;2023-08-12T03:12:46;5.35;;;4.10;;
17052;SDS011;8643;48.824;11.422;2023-08-12T03:15:16;5.60;;;4.47;;
17052;SDS011;8643;48.824;11.422;2023-08-12T03:17:45;5.50;;;3.85;;
17052;SDS011;8643;48.824;11.422;2023-08-12T03:20:16;4.53;;;3.70;;
17052;SDS011;8643;48.824;11.422;2023-08-12T03:22:45;8.13;;;3.53;;
17052;SDS011;8643;48.824;11.422;2023-08-12T03:25:14;4.65;;;3.78;;
17052;SDS011;8643;48.824;11.422;2023-08-12T03:27:44;5.18;;;3.70;;
17052;SDS011;8643;48.824;11.422;2023-08-12T03:30:13;6.45;;;4.13;;
17052;SDS011;8643;48.824;11.422;2023-08-12T03:32:43;7.78;;;3.97;;
17052;SDS011;8643;48.824;11.422;2023-08-12T03:35:12;5.50;;;4.03;;
17052;SDS011;8643;48.824;11.422;2023-08-12T03:37:45;4.47;;;4.03;;
17052;SDS011;8643;48.824;11.422;2023-08-12T03:40:13;5.32;;;4.03;;
17052;SDS011;8643;48.824;11.422;2023-08-12T03:42:42;4.32;;;3.90;;
17052;SDS011;8643;48.824;11.422;2023-08-12T03:45:11;5.28;;;4.28;;
17052;SDS011;8643;48.824;11.422;2023-08-12T03:47:39;5.68;;;3.97;;
17052;SDS011;8643;48.824;11.422;2023-08-12T03:50:09;4.40;;;4.00;;
17052;SDS011;8643;48.824;11.422;2023-08-12T03:52:38;4.70;;;3.85;;
17052;SDS011;8643;48.824;11.422;2023-08-12T03:55:08;4.43;;;4.00;;
17052;SDS011;8643;48.824;11.422;2023-08-12T03:57:37;6.97;;;4.30;;
17052;SDS011;8643;48.824;11.422;2023-08-12T04:00:06;6.82;;;4.47;;
17052;SDS011;8643;48.824;11.422;2023-08-12T04:02:40;7.05;;;4.13;;
17052;SDS011;8643;48.824;11.422;2023-08-12T04:05:09;7.68;;;4.47;;
17052;SDS011;8643;48.824;11.422;2023-08-12T04:07:38;6.43;;;4.38;;
17052;SDS011;8643;48.824;11.422;2023-08-12T04:10:10;5.13;;;4.30;;
17052;SDS011;8643;48.824;11.422;2023-08-12T04:12:39;5.18;;;4.15;;
17052;SDS011;8643;48.824;11.422;2023-08-12T04:15:09;5.97;;;4.18;;
17052;SDS011;8643;48.824;11.422;2023-08-12T04:17:37;7.25;;;4.65;;
17052;SDS011;8643;48.824;11.422;2023-08-12T04:20:08;5.72;;;4.22;;
17052;SDS011;8643;48.824;11.422;2023-08-12T04:22:37;10.35;;;4.40;;
17052;SDS011;8643;48.824;11.422;2023-08-12T04:25:06;6.25;;;4.55;;
17052;SDS011;8643;48.824;11.422;2023-08-12T04:27:37;5.22;;;4.10;;
17052;SDS011;8643;48.824;11.422;2023-08-12T04:30:06;4.88;;;4.35;;
17052;SDS011;8643;48.824;11.422;2023-08-12T04:32:36;5.78;;;4.30;;
17052;SDS011;8643;48.824;11.422;2023-08-12T04:35:06;4.97;;;4.03;;
17052;SDS011;8643;48.824;11.422;2023-08-12T04:37:37;6.03;;;4.28;;
17052;SDS011;8643;48.824;11.422;2023-08-12T04:40:07;6.97;;;4.47;;
17052;SDS011;8643;48.824;11.422;2023-08-12T04:42:40;7.78;;;4.20;;
17052;SDS011;8643;48.824;11.422;2023-08-12T04:45:09;7.22;;;4.32;;
17052;SDS011;8643;48.824;11.422;2023-08-12T04:47:37;6.55;;;4.30;;
17052;SDS011;8643;48.824;11.422;2023-08-12T04:50:06;4.90;;;4.22;;
17052;SDS011;8643;48.824;11.422;2023-08-12T04:52:36;7.90;;;4.60;;
17052;SDS011;8643;48.824;11.422;2023-08-12T04:55:06;5.00;;;4.40;;
17052;SDS011;8643;48.824;11.422;2023-08-12T04:57:37;6.15;;;4.30;;
17052;SDS011;8643;48.824;11.422;2023-08-12T05:00:07;6.28;;;4.10;;
17052;SDS011;8643;48.824;11.422;2023-08-12T05:02:36;13.38;;;4.40;;
17052;SDS011;8643;48.824;11.422;2023-08-12T05:05:06;6.80;;;4.57;;
17052;SDS011;8643;48.824;11.422;2023-08-12T05:07:35;6.22;;;4.18;;
17052;SDS011;8643;48.824;11.422;2023-08-12T05:10:07;4.18;;;3.75;;
17052;SDS011;8643;48.824;11.422;2023-08-12T05:12:36;4.80;;;4.30;;
17052;SDS011;8643;48.824;11.422;2023-08-12T05:15:07;5.18;;;4.28;;
17052;SDS011;8643;48.824;11.422;2023-08-12T05:17:37;5.65;;;4.30;;
17052;SDS011;8643;48.824;11.422;2023-08-12T05:20:07;6.57;;;4.18;;
17052;SDS011;8643;48.824;11.422;2023-08-12T05:22:37;6.15;;;4.07;;
17052;SDS011;8643;48.824;11.422;2023-08-12T05:25:05;4.93;;;4.38;;
17052;SDS011;8643;48.824;11.422;2023-08-12T05:27:35;4.82;;;4.35;;
17052;SDS011;8643;48.824;11.422;2023-08-12T05:30:03;5.43;;;4.20;;
17052;SDS011;8643;48.824;11.422;2023-08-12T05:32:34;4.88;;;4.10;;
17052;SDS011;8643;48.824;11.422;2023-08-12T05:35:03;6.35;;;4.65;;
17052;SDS011;8643;48.824;11.422;2023-08-12T05:37:32;4.90;;;4.40;;
17052;SDS011;8643;48.824;11.422;2023-08-12T05:40:01;4.68;;;4.13;;
17052;SDS011;8643;48.824;11.422;2023-08-12T05:42:34;5.57;;;4.40;;
17052;SDS011;8643;48.824;11.422;2023-08-12T05:45:03;6.00;;;4.50;;
17052;SDS011;8643;48.824;11.422;2023-08-12T05:47:35;5.40;;;4.00;;
17052;SDS011;8643;48.824;11.422;2023-08-12T05:50:04;8.55;;;4.70;;
17052;SDS011;8643;48.824;11.422;2023-08-12T05:52:34;5.95;;;4.80;;
17052;SDS011;8643;48.824;11.422;2023-08-12T05:55:02;8.85;;;4.75;;
17052;SDS011;8643;48.824;11.422;2023-08-12T05:57:32;5.18;;;4.55;;
17052;SDS011;8643;48.824;11.422;2023-08-12T06:00:00;9.25;;;4.47;;
17052;SDS011;8643;48.824;11.422;2023-08-12T06:02:38;4.57;;;3.92;;
17052;SDS011;8643;48.824;11.422;2023-08-12T06:05:07;6.38;;;4.28;;
17052;SDS011;8643;48.824;11.422;2023-08-12T06:07:36;6.28;;;4.47;;
17052;SDS011;8643;48.824;11.422;2023-08-12T06:10:05;5.95;;;4.18;;
17052;SDS011;8643;48.824;11.422;2023-08-12T06:12:34;5.45;;;4.28;;
17052;SDS011;8643;48.824;11.422;2023-08-12T06:15:03;6.45;;;4.38;;
17052;SDS011;8643;48.824;11.422;2023-08-12T06:17:32;5.45;;;3.53;;
17052;SDS011;8643;48.824;11.422;2023-08-12T06:20:02;4.13;;;3.63;;
17052;SDS011;8643;48.824;11.422;2023-08-12T06:22:31;4.05;;;3.53;;
17052;SDS011;8643;48.824;11.422;2023-08-12T06:24:59;4.68;;;4.07;;
17052;SDS011;8643;48.824;11.422;2023-08-12T06:27:28;4.05;;;3.63;;
17052;SDS011;8643;48.824;11.422;2023-08-12T06:29:56;5.32;;;3.90;;
17052;SDS011;8643;48.824;11.422;2023-08-12T06:32:24;6.20;;;3.90;;
17052;SDS011;8643;48.824;11.422;2023-08-12T06:34:53;7.18;;;3.83;;
17052;SDS011;8643;48.824;11.422;2023-08-12T06:37:22;6.47;;;4.15;;
17052;SDS011;8643;48.824;11.422;2023-08-12T06:39:51;6.55;;;4.00;;
17052;SDS011;8643;48.824;11.422;2023-08-12T06:42:19;5.18;;;3.55;;
17052;SDS011;8643;48.824;11.422;2023-08-12T06:44:49;5.63;;;4.30;;
17052;SDS011;8643;48.824;11.422;2023-08-12T06:47:21;4.47;;;3.92;;
17052;SDS011;8643;48.824;11.422;2023-08-12T06:49:50;8.20;;;3.97;;
17052;SDS011;8643;48.824;11.422;2023-08-12T06:52:18;4.55;;;3.55;;
17052;SDS011;8643;48.824;11.422;2023-08-12T06:54:48;3.83;;;3.33;;
17052;SDS011;8643;48.824;11.422;2023-08-12T06:57:17;5.10;;;3.75;;
17052;SDS011;8643;48.824;11.422;2023-08-12T06:59:45;4.72;;;3.65;;
17052;SDS011;8643;48.824;11.422;2023-08-12T07:02:14;7.85;;;3.80;;
17052;SDS011;8643;48.824;11.422;2023-08-12T07:04:42;4.50;;;3.72;;
17052;SDS011;8643;48.824;11.422;2023-08-12T07:07:10;4.05;;;3.60;;
17052;SDS011;8643;48.824;11.422;2023-08-12T07:09:39;6.28;;;3.80;;
17052;SDS011;8643;48.824;11.422;2023-08-12T07:12:09;5.05;;;3.75;;
17052;SDS011;8643;48.824;11.422;2023-08-12T07:14:37;5.10;;;3.80;;
17052;SDS011;8643;48.824;11.422;2023-08-12T07:17:06;4.45;;;3.70;;
17052;SDS011;8643;48.824;11.422;2023-08-12T07:19:34;4.18;;;3.45;;
17052;SDS011;8643;48.824;11.422;2023-08-12T07:22:03;4.88;;;3.38;;
17052;SDS011;8643;48.824;11.422;2023-08-12T07:24:31;5.20;;;4.07;;
17052;SDS011;8643;48.824;11.422;2023-08-12T07:27:00;5.15;;;3.67;;
17052;SDS011;8643;48.824;11.422;2023-08-12T07:29:33;3.95;;;3.20;;
17052;SDS011;8643;48.824;11.422;2023-08-12T07:32:01;4.68;;;3.40;;
17052;SDS011;8643;48.824;11.422;2023-08-12T07:34:31;5.40;;;3.67;;
17052;SDS011;8643;48.824;11.422;2023-08-12T07:36:59;4.70;;;3.53;;
17052;SDS011;8643;48.824;11.422;2023-08-12T07:39:27;4.45;;;3.70;;
17052;SDS011;8643;48.824;11.422;2023-08-12T07:41:56;5.90;;;3.80;;
17052;SDS011;8643;48.824;11.422;2023-08-12T07:44:24;4.70;;;3.65;;
17052;SDS011;8643;48.824;11.422;2023-08-12T07:46:54;5.80;;;4.22;;
17052;SDS011;8643;48.824;11.422;2023-08-12T07:49:22;5.75;;;3.88;;
17052;SDS011;8643;48.824;11.422;2023-08-12T07:51:51;6.63;;;3.90;;
17052;SDS011;8643;48.824;11.422;2023-08-12T07:54:19;5.93;;;4.28;;
17052;SDS011;8643;48.824;11.422;2023-08-12T07:56:48;4.22;;;3.63;;
17052;SDS011;8643;48.824;11.422;2023-08-12T07:59:16;5.85;;;4.05;;
17052;SDS011;8643;48.824;11.422;2023-08-12T08:01:45;4.63;;;4.10;;
17052;SDS011;8643;48.824;11.422;2023-08-12T08:04:14;7.90;;;4.10;;
17052;SDS011;8643;48.824;11.422;2023-08-12T08:06:43;5.47;;;4.10;;
17052;SDS011;8643;48.824;11.422;2023-08-12T08:09:14;5.28;;;4.00;;
17052;SDS011;8643;48.824;11.422;2023-08-12T08:11:42;4.93;;;4.05;;
17052;SDS011;8643;48.824;11.422;2023-08-12T08:14:11;4.55;;;3.78;;
17052;SDS011;8643;48.824;11.422;2023-08-12T08:16:40;5.05;;;4.07;;
17052;SDS011;8643;48.824;11.422;2023-08-12T08:19:08;7.55;;;4.22;;
17052;SDS011;8643;48.824;11.422;2023-08-12T08:21:40;5.88;;;4.07;;
17052;SDS011;8643;48.824;11.422;2023-08-12T08:24:08;3.97;;;3.60;;
17052;SDS011;8643;48.824;11.422;2023-08-12T08:26:39;6.72;;;4.03;;
17052;SDS011;8643;48.824;11.422;2023-08-12T08:29:08;7.05;;;4.30;;
17052;SDS011;8643;48.824;11.422;2023-08-12T08:31:36;4.38;;;3.78;;
17052;SDS011;8643;48.824;11.422;2023-08-12T08:34:04;5.65;;;3.70;;
17052;SDS011;8643;48.824;11.422;2023-08-12T08:36:34;6.38;;;4.35;;
17052;SDS011;8643;48.824;11.422;2023-08-12T08:39:04;4.80;;;3.88;;
17052;SDS011;8643;48.824;11.422;2023-08-12T08:41:32;5.18;;;4.32;;
17052;SDS011;8643;48.824;11.422;2023-08-12T08:44:06;6.60;;;4.20;;
17052;SDS011;8643;48.824;11.422;2023-08-12T08:46:36;7.45;;;4.78;;
17052;SDS011;8643;48.824;11.422;2023-08-12T08:49:05;6.32;;;4.53;;
17052;SDS011;8643;48.824;11.422;2023-08-12T08:51:35;4.60;;;4.10;;
17052;SDS011;8643;48.824;11.422;2023-08-12T08:54:05;5.80;;;4.32;;
17052;SDS011;8643;48.824;11.422;2023-08-12T08:56:34;5.95;;;4.50;;
17052;SDS011;8643;48.824;11.422;2023-08-12T08:59:11;4.68;;;3.90;;
17052;SDS011;8643;48.824;11.422;2023-08-12T09:01:39;5.35;;;4.20;;
17052;SDS011;8643;48.824;11.422;2023-08-12T09:04:11;5.28;;;4.43;;
17052;SDS011;8643;48.824;11.422;2023-08-12T09:06:40;7.47;;;4.72;;
17052;SDS011;8643;48.824;11.422;2023-08-12T09:09:14;5.80;;;4.50;;
17052;SDS011;8643;48.824;11.422;2023-08-12T09:11:47;5.22;;;4.60;;
17052;SDS011;8643;48.824;11.422;2023-08-12T09:14:16;5.43;;;4.22;;
17052;SDS011;8643;48.824;11.422;2023-08-12T09:16:44;5.25;;;4.65;;
17052;SDS011;8643;48.824;11.422;2023-08-12T09:19:13;7.40;;;4.30;;
17052;SDS011;8643;48.824;11.422;2023-08-12T09:21:42;5.47;;;4.25;;
17052;SDS011;8643;48.824;11.422;2023-08-12T09:24:10;5.78;;;4.03;;
17052;SDS011;8643;48.824;11.422;2023-08-12T09:26:42;5.85;;;4.50;;
17052;SDS011;8643;48.824;11.422;2023-08-12T09:29:11;5.45;;;4.20;;
17052;SDS011;8643;48.824;11.422;2023-08-12T09:31:39;5.38;;;4.40;;
17052;SDS011;8643;48.824;11.422;2023-08-12T09:34:08;4.47;;;4.07;;
17052;SDS011;8643;48.824;11.422;2023-08-12T09:36:36;6.22;;;4.28;;
17052;SDS011;8643;48.824;11.422;2023-08-12T09:39:05;6.25;;;4.40;;
17052;SDS011;8643;48.824;11.422;2023-08-12T09:41:38;5.15;;;4.55;;
17052;SDS011;8643;48.824;11.422;2023-08-12T09:44:06;5.65;;;4.07;;
17052;SDS011;8643;48.824;11.422;2023-08-12T09:46:36;5.10;;;4.45;;
17052;SDS011;8643;48.824;11.422;2023-08-12T09:49:06;7.25;;;4.45;;
17052;SDS011;8643;48.824;11.422;2023-08-12T09:51:36;6.15;;;4.40;;
17052;SDS011;8643;48.824;11.422;2023-08-12T09:54:08;7.03;;;4.75;;
17052;SDS011;8643;48.824;11.422;2023-08-12T09:56:42;6.25;;;3.67;;
17052;SDS011;8643;48.824;11.422;2023-08-12T09:59:15;6.57;;;3.85;;
17052;SDS011;8643;48.824;11.422;2023-08-12T10:01:49;7.30;;;4.88;;
17052;SDS011;8643;48.824;11.422;2023-08-12T10:04:21;5.55;;;4.95;;
17052;SDS011;8643;48.824;11.422;2023-08-12T10:06:54;4.97;;;4.40;;
17052;SDS011;8643;48.824;11.422;2023-08-12T10:09:23;4.30;;;3.90;;
17052;SDS011;8643;48.824;11.422;2023-08-12T10:11:53;7.35;;;4.70;;
17052;SDS011;8643;48.824;11.422;2023-08-12T10:14:23;8.07;;;3.95;;
17052;SDS011;8643;48.824;11.422;2023-08-12T10:16:53;6.75;;;4.38;;
17052;SDS011;8643;48.824;11.422;2023-08-12T10:19:31;6.22;;;3.95;;
17052;SDS011;8643;48.824;11.422;2023-08-12T10:22:02;4.72;;;3.97;;
17052;SDS011;8643;48.824;11.422;2023-08-12T10:24:31;5.20;;;4.15;;
17052;SDS011;8643;48.824;11.422;2023-08-12T10:27:04;7.55;;;4.00;;
17052;SDS011;8643;48.824;11.422;2023-08-12T10:29:32;5.30;;;3.65;;
17052;SDS011;8643;48.824;11.422;2023-08-12T10:32:02;5.60;;;3.67;;
17052;SDS011;8643;48.824;11.422;2023-08-12T10:34:31;3.95;;;3.55;;
17052;SDS011;8643;48.824;11.422;2023-08-12T10:37:00;5.32;;;3.60;;
17052;SDS011;8643;48.824;11.422;2023-08-12T10:39:31;5.60;;;3.30;;
17052;SDS011;8643;48.824;11.422;2023-08-12T10:42:00;5.65;;;4.03;;
17052;SDS011;8643;48.824;11.422;2023-08-12T10:44:38;4.32;;;3.80;;
17052;SDS011;8643;48.824;11.422;2023-08-12T10:47:16;8.38;;;3.78;;
17052;SDS011;8643;48.824;11.422;2023-08-12T10:49:48;6.75;;;3.72;;
17052;SDS011;8643;48.824;11.422;2023-08-12T10:52:27;4.10;;;3.70;;
17052;SDS011;8643;48.824;11.422;2023-08-12T10:57:47;4.25;;;3.63;;
17052;SDS011;8643;48.824;11.422;2023-08-12T11:00:24;5.00;;;4.07;;
17052;SDS011;8643;48.824;11.422;2023-08-12T11:02:55;5.97;;;3.80;;
17052;SDS011;8643;48.824;11.422;2023-08-12T11:05:24;3.90;;;3.50;;
17052;SDS011;8643;48.824;11.422;2023-08-12T11:08:05;6.40;;;3.90;;
17052;SDS011;8643;48.824;11.422;2023-08-12T11:10:34;4.88;;;3.58;;
17052;SDS011;8643;48.824;11.422;2023-08-12T11:13:03;7.10;;;3.90;;
17052;SDS011;8643;48.824;11.422;2023-08-12T11:15:33;4.60;;;4.13;;
17052;SDS011;8643;48.824;11.422;2023-08-12T11:18:04;6.15;;;4.10;;
17052;SDS011;8643;48.824;11.422;2023-08-12T11:20:35;4.10;;;3.70;;
17052;SDS011;8643;48.824;11.422;2023-08-12T11:23:05;6.70;;;3.97;;
17052;SDS011;8643;48.824;11.422;2023-08-12T11:25:36;5.60;;;3.90;;
17052;SDS011;8643;48.824;11.422;2023-08-12T11:28:07;4.78;;;3.97;;
17052;SDS011;8643;48.824;11.422;2023-08-12T11:30:39;4.45;;;4.03;;
17052;SDS011;8643;48.824;11.422;2023-08-12T11:33:10;5.50;;;4.18;;
17052;SDS011;8643;48.824;11.422;2023-08-12T11:35:38;3.72;;;3.42;;
17052;SDS011;8643;48.824;11.422;2023-08-12T11:38:07;6.10;;;3.90;;
17052;SDS011;8643;48.824;11.422;2023-08-12T11:40:37;8.20;;;4.00;;
17052;SDS011;8643;48.824;11.422;2023-08-12T11:43:06;6.65;;;4.63;;
17052;SDS011;8643;48.824;11.422;2023-08-12T11:45:34;5.88;;;3.60;;
17052;SDS011;8643;48.824;11.422;2023-08-12T11:48:06;5.22;;;3.83;;
17052;SDS011;8643;48.824;11.422;2023-08-12T11:50:35;6.10;;;4.15;;
17052;SDS011;8643;48.824;11.422;2023-08-12T11:53:03;5.50;;;3.90;;
17052;SDS011;8643;48.824;11.422;2023-08-12T11:55:32;5.22;;;3.70;;
17052;SDS011;8643;48.824;11.422;2023-08-12T11:58:01;5.82;;;3.70;;
17052;SDS011;8643;48.824;11.422;2023-08-12T12:00:29;4.45;;;3.80;;
17052;SDS011;8643;48.824;11.422;2023-08-12T12:03:00;4.90;;;3.60;;
17052;SDS011;8643;48.824;11.422;2023-08-12T12:05:30;5.18;;;3.63;;
17052;SDS011;8643;48.824;11.422;2023-08-12T12:08:00;6.60;;;3.50;;
17052;SDS011;8643;48.824;11.422;2023-08-12T12:10:32;4.95;;;3.40;;
17052;SDS011;8643;48.824;11.422;2023-08-12T12:13:02;8.05;;;3.45;;
17052;SDS011;8643;48.824;11.422;2023-08-12T12:15:35;3.28;;;2.97;;
17052;SDS011;8643;48.824;11.422;2023-08-12T12:18:09;4.88;;;3.47;;
17052;SDS011;8643;48.824;11.422;2023-08-12T12:20:54;5.70;;;3.60;;
17052;SDS011;8643;48.824;11.422;2023-08-12T12:23:26;7.07;;;3.63;;
17052;SDS011;8643;48.824;11.422;2023-08-12T12:25:56;4.72;;;3.30;;
17052;SDS011;8643;48.824;11.422;2023-08-12T12:28:26;5.72;;;3.17;;
17052;SDS011;8643;48.824;11.422;2023-08-12T12:30:55;4.93;;;3.40;;
17052;SDS011;8643;48.824;11.422;2023-08-12T12:33:24;4.53;;;3.70;;
17052;SDS011;8643;48.824;11.422;2023-08-12T12:35:55;5.95;;;3.75;;
17052;SDS011;8643;48.824;11.422;2023-08-12T12:38:27;5.93;;;3.67;;
17052;SDS011;8643;48.824;11.422;2023-08-12T12:40:56;5.75;;;3.28;;
17052;SDS011;8643;48.824;11.422;2023-08-12T12:43:24;5.20;;;3.50;;
17052;SDS011;8643;48.824;11.422;2023-08-12T12:45:53;5.50;;;3.00;;
17052;SDS011;8643;48.824;11.422;2023-08-12T12:48:21;3.30;;;3.00;;
17052;SDS011;8643;48.824;11.422;2023-08-12T12:50:50;4.35;;;2.92;;
17052;SDS011;8643;48.824;11.422;2023-08-12T12:53:19;3.97;;;3.40;;
17052;SDS011;8643;48.824;11.422;2023-08-12T12:55:48;4.55;;;3.28;;
17052;SDS011;8643;48.824;11.422;2023-08-12T12:58:17;7.32;;;3.30;;
17052;SDS011;8643;48.824;11.422;2023-08-12T13:00:45;8.50;;;4.50;;
17052;SDS011;8643;48.824;11.422;2023-08-12T13:03:14;5.25;;;3.50;;
17052;SDS011;8643;48.824;11.422;2023-08-12T13:05:42;4.22;;;3.10;;
17052;SDS011;8643;48.824;11.422;2023-08-12T13:08:11;5.47;;;3.30;;
17052;SDS011;8643;48.824;11.422;2023-08-12T13:10:40;7.20;;;3.08;;
17052;SDS011;8643;48.824;11.422;2023-08-12T13:13:09;5.95;;;3.15;;
17052;SDS011;8643;48.824;11.422;2023-08-12T13:15:37;6.55;;;3.42;;
17052;SDS011;8643;48.824;11.422;2023-08-12T13:18:06;8.30;;;3.35;;
17052;SDS011;8643;48.824;11.422;2023-08-12T13:20:34;4.00;;;3.30;;
17052;SDS011;8643;48.824;11.422;2023-08-12T13:23:03;5.88;;;3.53;;
17052;SDS011;8643;48.824;11.422;2023-08-12T13:25:32;4.05;;;3.40;;
17052;SDS011;8643;48.824;11.422;2023-08-12T13:28:03;3.83;;;3.42;;
17052;SDS011;8643;48.824;11.422;2023-08-12T13:30:32;3.55;;;3.25;;
17052;SDS011;8643;48.824;11.422;2023-08-12T13:33:02;3.60;;;3.30;;
17052;SDS011;8643;48.824;11.422;2023-08-12T13:35:32;5.28;;;3.20;;
17052;SDS011;8643;48.824;11.422;2023-08-12T13:38:01;3.58;;;3.25;;
17052;SDS011;8643;48.824;11.422;2023-08-12T13:40:29;5.00;;;3.45;;
17052;SDS011;8643;48.824;11.422;2023-08-12T13:42:58;6.50;;;3.50;;
17052;SDS011;8643;48.824;11.422;2023-08-12T13:45:27;5.55;;;3.55;;
17052;SDS011;8643;48.824;11.422;2023-08-12T13:47:56;6.75;;;3.70;;
17052;SDS011;8643;48.824;11.422;2023-08-12T13:50:24;8.98;;;3.70;;
17052;SDS011;8643;48.824;11.422;2023-08-12T13:52:53;4.70;;;3.70;;
17052;SDS011;8643;48.824;11.422;2023-08-12T13:55:22;5.07;;;4.05;;
17052;SDS011;8643;48.824;11.422;2023-08-12T13:57:50;4.57;;;3.85;;
17052;SDS011;8643;48.824;11.422;2023-08-12T14:00:19;4.75;;;3.83;;
17052;SDS011;8643;48.824;11.422;2023-08-12T14:02:51;5.20;;;4.20;;
17052;SDS011;8643;48.824;11.422;2023-08-12T14:05:20;5.15;;;4.28;;
17052;SDS011;8643;48.824;11.422;2023-08-12T14:07:49;8.32;;;4.28;;
17052;SDS011;8643;48.824;11.422;2023-08-12T14:10:18;6.15;;;3.88;;
17052;SDS011;8643;48.824;11.422;2023-08-12T14:12:46;8.43;;;3.90;;
17052;SDS011;8643;48.824;11.422;2023-08-12T14:15:18;8.68;;;3.85;;
17052;SDS011;8643;48.824;11.422;2023-08-12T14:17:46;5.07;;;4.05;;
17052;SDS011;8643;48.824;11.422;2023-08-12T14:20:16;7.53;;;4.10;;
17052;SDS011;8643;48.824;11.422;2023-08-12T14:22:45;8.70;;;4.10;;
17052;SDS011;8643;48.824;11.422;2023-08-12T14:25:13;8.55;;;4.10;;
17052;SDS011;8643;48.824;11.422;2023-08-12T14:27:42;8.48;;;4.40;;
17052;SDS011;8643;48.824;11.422;2023-08-12T14:30:10;5.43;;;4.18;;
17052;SDS011;8643;48.824;11.422;2023-08-12T14:32:40;6.00;;;4.10;;
17052;SDS011;8643;48.824;11.422;2023-08-12T14:35:08;11.25;;;4.00;;
17052;SDS011;8643;48.824;11.422;2023-08-12T14:37:38;7.75;;;4.05;;
17052;SDS011;8643;48.824;11.422;2023-08-12T14:40:07;8.10;;;4.45;;
17052;SDS011;8643;48.824;11.422;2023-08-12T14:42:36;7.68;;;4.32;;
17052;SDS011;8643;48.824;11.422;2023-08-12T14:45:05;9.90;;;4.40;;
17052;SDS011;8643;48.824;11.422;2023-08-12T14:47:35;8.65;;;4.45;;
17052;SDS011;8643;48.824;11.422;2023-08-12T14:50:04;6.78;;;4.32;;
17052;SDS011;8643;48.824;11.422;2023-08-12T14:52:34;5.50;;;3.88;;
17052;SDS011;8643;48.824;11.422;2023-08-12T14:55:05;4.72;;;4.13;;
17052;SDS011;8643;48.824;11.422;2023-08-12T14:57:34;7.63;;;4.20;;
17052;SDS011;8643;48.824;11.422;2023-08-12T15:00:03;4.75;;;4.07;;
17052;SDS011;8643;48.824;11.422;2023-08-12T15:02:33;6.43;;;3.50;;
17052;SDS011;8643;48.824;11.422;2023-08-12T15:05:01;12.13;;;3.80;;